sensor_id;sensor_type;location;lat;lon;timestamp;temperature;humidity
210;DHT22;90;48.810;9.120;2024-01-27T00:02:25;4.70;80.80
210;DHT22;90;48.810;9.120;2024-01-27T00:04:52;4.70;80.90
210;DHT22;90;48.810;9.120;2024-01-27T00:07:19;4.50;80.90
210;DHT22;90;48.810;9.120;2024-01-27T00:09:45;4.60;81.00
210;DHT22;90;48.810;9.120;2024-01-27T00:12:12;4.70;80.70
210;DHT22;90;48.810;9.120;2024-01-27T00:14:39;4.70;80.60
210;DHT22;90;48.810;9.120;2024-01-27T00:17:06;4.70;80.30
210;DHT22;90;48.810;9.120;2024-01-27T00:19:34;4.60;80.60
210;DHT22;90;48.810;9.120;2024-01-27T00:22:00;4.50;80.80
210;DHT22;90;48.810;9.120;2024-01-27T00:24:27;4.60;81.40
210;DHT22;90;48.810;9.120;2024-01-27T00:26:54;4.80;80.90
210;DHT22;90;48.810;9.120;2024-01-27T00:29:22;4.70;81.10
210;DHT22;90;48.810;9.120;2024-01-27T00:31:49;4.60;80.80
210;DHT22;90;48.810;9.120;2024-01-27T00:34:16;4.60;80.70
210;DHT22;90;48.810;9.120;2024-01-27T00:36:45;4.50;80.70
210;DHT22;90;48.810;9.120;2024-01-27T00:39:14;4.40;80.90
210;DHT22;90;48.810;9.120;2024-01-27T00:41:41;4.40;81.20
210;DHT22;90;48.810;9.120;2024-01-27T00:44:10;4.30;81.80
210;DHT22;90;48.810;9.120;2024-01-27T00:46:37;4.30;82.20
210;DHT22;90;48.810;9.120;2024-01-27T00:49:04;4.30;82.50
210;DHT22;90;48.810;9.120;2024-01-27T00:51:31;4.40;82.50
210;DHT22;90;48.810;9.120;2024-01-27T00:53:59;4.40;82.50
210;DHT22;90;48.810;9.120;2024-01-27T00:56:26;4.40;82.30
210;DHT22;90;48.810;9.120;2024-01-27T00:58:53;4.30;82.00
210;DHT22;90;48.810;9.120;2024-01-27T01:01:22;4.30;81.80
210;DHT22;90;48.810;9.120;2024-01-27T01:03:49;4.30;81.60
210;DHT22;90;48.810;9.120;2024-01-27T01:06:16;4.20;81.30
210;DHT22;90;48.810;9.120;2024-01-27T01:08:43;4.10;82.00
210;DHT22;90;48.810;9.120;2024-01-27T01:11:12;4.00;82.60
210;DHT22;90;48.810;9.120;2024-01-27T01:13:40;4.00;82.80
210;DHT22;90;48.810;9.120;2024-01-27T01:16:07;4.10;83.10
210;DHT22;90;48.810;9.120;2024-01-27T01:18:34;4.10;83.10
210;DHT22;90;48.810;9.120;2024-01-27T01:21:01;4.20;82.70
210;DHT22;90;48.810;9.120;2024-01-27T01:23:28;4.10;82.60
210;DHT22;90;48.810;9.120;2024-01-27T01:25:55;4.10;82.60
210;DHT22;90;48.810;9.120;2024-01-27T01:28:23;4.00;82.70
210;DHT22;90;48.810;9.120;2024-01-27T01:30:51;4.00;82.90
210;DHT22;90;48.810;9.120;2024-01-27T01:33:18;4.10;82.60
210;DHT22;90;48.810;9.120;2024-01-27T01:35:45;4.10;82.30
210;DHT22;90;48.810;9.120;2024-01-27T01:38:12;4.00;82.70
210;DHT22;90;48.810;9.120;2024-01-27T01:40:38;4.00;82.90
210;DHT22;90;48.810;9.120;2024-01-27T01:43:09;4.10;82.70
210;DHT22;90;48.810;9.120;2024-01-27T01:45:38;4.20;82.50
210;DHT22;90;48.810;9.120;2024-01-27T01:48:05;4.30;81.60
210;DHT22;90;48.810;9.120;2024-01-27T01:50:33;4.30;81.20
210;DHT22;90;48.810;9.120;2024-01-27T01:53:01;4.10;81.50
210;DHT22;90;48.810;9.120;2024-01-27T01:55:27;3.90;82.20
210;DHT22;90;48.810;9.120;2024-01-27T01:57:54;3.80;83.10
210;DHT22;90;48.810;9.120;2024-01-27T02:00:23;3.80;83.60
210;DHT22;90;48.810;9.120;2024-01-27T02:02:51;3.80;83.60
210;DHT22;90;48.810;9.120;2024-01-27T02:05:18;3.90;83.60
210;DHT22;90;48.810;9.120;2024-01-27T02:07:44;4.10;83.10
210;DHT22;90;48.810;9.120;2024-01-27T02:10:16;4.10;83.10
210;DHT22;90;48.810;9.120;2024-01-27T02:12:43;4.00;82.90
210;DHT22;90;48.810;9.120;2024-01-27T02:15:10;4.00;83.10
210;DHT22;90;48.810;9.120;2024-01-27T02:17:38;4.00;82.30
210;DHT22;90;48.810;9.120;2024-01-27T02:20:09;4.00;82.10
210;DHT22;90;48.810;9.120;2024-01-27T02:22:36;4.00;82.30
210;DHT22;90;48.810;9.120;2024-01-27T02:25:05;3.90;82.60
210;DHT22;90;48.810;9.120;2024-01-27T02:27:32;4.00;82.70
210;DHT22;90;48.810;9.120;2024-01-27T02:29:58;4.00;82.50
210;DHT22;90;48.810;9.120;2024-01-27T02:32:25;4.10;82.90
210;DHT22;90;48.810;9.120;2024-01-27T02:34:52;4.10;82.60
210;DHT22;90;48.810;9.120;2024-01-27T02:37:19;4.00;82.50
210;DHT22;90;48.810;9.120;2024-01-27T02:39:46;3.90;82.60
210;DHT22;90;48.810;9.120;2024-01-27T02:42:15;3.80;82.80
210;DHT22;90;48.810;9.120;2024-01-27T02:44:42;3.90;82.60
210;DHT22;90;48.810;9.120;2024-01-27T02:47:08;3.90;82.10
210;DHT22;90;48.810;9.120;2024-01-27T02:49:35;3.90;81.80
210;DHT22;90;48.810;9.120;2024-01-27T02:52:02;3.70;82.10
210;DHT22;90;48.810;9.120;2024-01-27T02:54:29;3.70;82.70
210;DHT22;90;48.810;9.120;2024-01-27T02:56:55;3.60;82.70
210;DHT22;90;48.810;9.120;2024-01-27T02:59:23;3.50;83.30
210;DHT22;90;48.810;9.120;2024-01-27T03:01:50;3.40;83.60
210;DHT22;90;48.810;9.120;2024-01-27T03:04:17;3.40;83.90
210;DHT22;90;48.810;9.120;2024-01-27T03:06:43;3.40;83.80
210;DHT22;90;48.810;9.120;2024-01-27T03:09:10;3.30;84.00
210;DHT22;90;48.810;9.120;2024-01-27T03:11:37;3.40;83.80
210;DHT22;90;48.810;9.120;2024-01-27T03:14:03;3.40;83.70
210;DHT22;90;48.810;9.120;2024-01-27T03:16:32;3.60;83.10
210;DHT22;90;48.810;9.120;2024-01-27T03:18:59;3.60;82.90
210;DHT22;90;48.810;9.120;2024-01-27T03:21:25;3.50;83.10
210;DHT22;90;48.810;9.120;2024-01-27T03:23:52;3.30;83.80
210;DHT22;90;48.810;9.120;2024-01-27T03:26:19;3.20;84.40
210;DHT22;90;48.810;9.120;2024-01-27T03:28:45;3.10;85.00
210;DHT22;90;48.810;9.120;2024-01-27T03:31:12;3.10;84.70
210;DHT22;90;48.810;9.120;2024-01-27T03:33:40;3.10;85.00
210;DHT22;90;48.810;9.120;2024-01-27T03:36:09;3.20;85.00
210;DHT22;90;48.810;9.120;2024-01-27T03:38:36;3.20;84.50
210;DHT22;90;48.810;9.120;2024-01-27T03:41:04;3.00;84.70
210;DHT22;90;48.810;9.120;2024-01-27T03:43:31;3.10;84.70
210;DHT22;90;48.810;9.120;2024-01-27T03:45:58;3.20;84.10
210;DHT22;90;48.810;9.120;2024-01-27T03:48:24;3.00;84.40
210;DHT22;90;48.810;9.120;2024-01-27T03:50:52;3.00;84.80
210;DHT22;90;48.810;9.120;2024-01-27T03:53:19;3.00;84.70
210;DHT22;90;48.810;9.120;2024-01-27T03:55:46;2.90;85.10
210;DHT22;90;48.810;9.120;2024-01-27T03:58:13;2.90;85.20
210;DHT22;90;48.810;9.120;2024-01-27T04:00:39;2.80;85.40
210;DHT22;90;48.810;9.120;2024-01-27T04:03:06;2.90;85.10
210;DHT22;90;48.810;9.120;2024-01-27T04:05:35;3.10;84.60
210;DHT22;90;48.810;9.120;2024-01-27T04:08:05;3.20;84.50
210;DHT22;90;48.810;9.120;2024-01-27T04:10:32;3.20;84.20
210;DHT22;90;48.810;9.120;2024-01-27T04:12:59;3.30;84.40
210;DHT22;90;48.810;9.120;2024-01-27T04:15:26;3.10;83.80
210;DHT22;90;48.810;9.120;2024-01-27T04:17:53;3.20;83.90
210;DHT22;90;48.810;9.120;2024-01-27T04:20:20;3.10;84.00
210;DHT22;90;48.810;9.120;2024-01-27T04:22:47;3.20;84.10
210;DHT22;90;48.810;9.120;2024-01-27T04:25:16;3.10;84.20
210;DHT22;90;48.810;9.120;2024-01-27T04:27:43;3.10;84.10
210;DHT22;90;48.810;9.120;2024-01-27T04:30:11;3.00;84.60
210;DHT22;90;48.810;9.120;2024-01-27T04:32:38;2.90;84.60
210;DHT22;90;48.810;9.120;2024-01-27T04:35:08;2.90;85.00
210;DHT22;90;48.810;9.120;2024-01-27T04:37:35;2.80;85.40
210;DHT22;90;48.810;9.120;2024-01-27T04:40:02;2.80;85.50
210;DHT22;90;48.810;9.120;2024-01-27T04:42:31;2.80;85.50
210;DHT22;90;48.810;9.120;2024-01-27T04:44:58;2.90;85.60
210;DHT22;90;48.810;9.120;2024-01-27T04:47:25;3.00;84.70
210;DHT22;90;48.810;9.120;2024-01-27T04:49:51;2.90;84.60
210;DHT22;90;48.810;9.120;2024-01-27T04:52:18;2.80;84.90
210;DHT22;90;48.810;9.120;2024-01-27T04:54:45;2.70;85.10
210;DHT22;90;48.810;9.120;2024-01-27T04:57:12;2.70;85.30
210;DHT22;90;48.810;9.120;2024-01-27T04:59:40;2.60;85.50
210;DHT22;90;48.810;9.120;2024-01-27T05:02:11;2.50;86.20
210;DHT22;90;48.810;9.120;2024-01-27T05:04:38;2.50;86.50
210;DHT22;90;48.810;9.120;2024-01-27T05:07:05;2.70;85.70
210;DHT22;90;48.810;9.120;2024-01-27T05:09:33;2.60;85.90
210;DHT22;90;48.810;9.120;2024-01-27T05:12:00;2.60;85.70
210;DHT22;90;48.810;9.120;2024-01-27T05:14:28;2.70;85.90
210;DHT22;90;48.810;9.120;2024-01-27T05:16:57;2.60;85.50
210;DHT22;90;48.810;9.120;2024-01-27T05:19:24;2.50;85.80
210;DHT22;90;48.810;9.120;2024-01-27T05:21:51;2.60;85.90
210;DHT22;90;48.810;9.120;2024-01-27T05:24:18;2.70;85.30
210;DHT22;90;48.810;9.120;2024-01-27T05:26:45;2.60;85.40
210;DHT22;90;48.810;9.120;2024-01-27T05:29:12;2.50;85.70
210;DHT22;90;48.810;9.120;2024-01-27T05:31:39;2.60;85.60
210;DHT22;90;48.810;9.120;2024-01-27T05:34:10;2.60;85.10
210;DHT22;90;48.810;9.120;2024-01-27T05:36:36;2.60;85.00
210;DHT22;90;48.810;9.120;2024-01-27T05:39:03;2.60;85.20
210;DHT22;90;48.810;9.120;2024-01-27T05:41:30;2.40;85.50
210;DHT22;90;48.810;9.120;2024-01-27T05:43:57;2.40;86.10
210;DHT22;90;48.810;9.120;2024-01-27T05:46:24;2.40;86.10
210;DHT22;90;48.810;9.120;2024-01-27T05:48:52;2.40;86.10
210;DHT22;90;48.810;9.120;2024-01-27T05:51:25;2.40;86.30
210;DHT22;90;48.810;9.120;2024-01-27T05:53:52;2.50;85.80
210;DHT22;90;48.810;9.120;2024-01-27T05:56:19;2.50;85.50
210;DHT22;90;48.810;9.120;2024-01-27T05:58:46;2.30;86.10
210;DHT22;90;48.810;9.120;2024-01-27T06:01:13;2.20;86.80
210;DHT22;90;48.810;9.120;2024-01-27T06:03:41;2.30;86.80
210;DHT22;90;48.810;9.120;2024-01-27T06:06:08;2.10;87.00
210;DHT22;90;48.810;9.120;2024-01-27T06:08:36;2.10;87.40
210;DHT22;90;48.810;9.120;2024-01-27T06:11:03;2.10;87.30
210;DHT22;90;48.810;9.120;2024-01-27T06:13:30;2.00;87.60
210;DHT22;90;48.810;9.120;2024-01-27T06:15:58;2.10;87.20
210;DHT22;90;48.810;9.120;2024-01-27T06:18:25;2.10;86.80
210;DHT22;90;48.810;9.120;2024-01-27T06:20:52;2.20;86.40
210;DHT22;90;48.810;9.120;2024-01-27T06:23:18;2.30;86.30
210;DHT22;90;48.810;9.120;2024-01-27T06:25:46;2.30;85.80
210;DHT22;90;48.810;9.120;2024-01-27T06:28:13;2.40;85.00
210;DHT22;90;48.810;9.120;2024-01-27T06:30:40;2.40;84.60
210;DHT22;90;48.810;9.120;2024-01-27T06:33:07;2.40;84.80
210;DHT22;90;48.810;9.120;2024-01-27T06:35:34;2.10;85.20
210;DHT22;90;48.810;9.120;2024-01-27T06:38:01;2.10;85.60
210;DHT22;90;48.810;9.120;2024-01-27T06:40:29;1.90;86.10
210;DHT22;90;48.810;9.120;2024-01-27T06:42:57;1.90;86.20
210;DHT22;90;48.810;9.120;2024-01-27T06:45:24;1.80;86.30
210;DHT22;90;48.810;9.120;2024-01-27T06:47:51;1.80;86.90
210;DHT22;90;48.810;9.120;2024-01-27T06:50:17;1.80;86.80
210;DHT22;90;48.810;9.120;2024-01-27T06:52:44;1.80;86.60
210;DHT22;90;48.810;9.120;2024-01-27T06:55:11;1.80;86.50
210;DHT22;90;48.810;9.120;2024-01-27T06:57:38;1.80;85.90
210;DHT22;90;48.810;9.120;2024-01-27T07:00:08;1.70;86.50
210;DHT22;90;48.810;9.120;2024-01-27T07:02:40;1.70;87.00
210;DHT22;90;48.810;9.120;2024-01-27T07:05:08;1.90;86.40
210;DHT22;90;48.810;9.120;2024-01-27T07:07:35;2.00;85.40
210;DHT22;90;48.810;9.120;2024-01-27T07:10:04;2.10;85.20
210;DHT22;90;48.810;9.120;2024-01-27T07:12:33;2.10;84.80
210;DHT22;90;48.810;9.120;2024-01-27T07:15:00;2.00;84.90
210;DHT22;90;48.810;9.120;2024-01-27T07:17:28;1.80;85.80
210;DHT22;90;48.810;9.120;2024-01-27T07:19:55;1.80;86.60
210;DHT22;90;48.810;9.120;2024-01-27T07:22:22;1.80;86.30
210;DHT22;90;48.810;9.120;2024-01-27T07:24:49;1.80;86.60
210;DHT22;90;48.810;9.120;2024-01-27T07:27:17;1.70;86.90
210;DHT22;90;48.810;9.120;2024-01-27T07:29:44;1.70;87.30
210;DHT22;90;48.810;9.120;2024-01-27T07:32:10;1.90;87.00
210;DHT22;90;48.810;9.120;2024-01-27T07:34:40;2.00;87.00
210;DHT22;90;48.810;9.120;2024-01-27T07:37:07;2.00;86.80
210;DHT22;90;48.810;9.120;2024-01-27T07:39:34;2.10;87.00
210;DHT22;90;48.810;9.120;2024-01-27T07:42:01;2.10;87.00
210;DHT22;90;48.810;9.120;2024-01-27T07:44:28;2.20;86.80
210;DHT22;90;48.810;9.120;2024-01-27T07:46:55;2.20;86.60
210;DHT22;90;48.810;9.120;2024-01-27T07:49:22;2.20;86.50
210;DHT22;90;48.810;9.120;2024-01-27T07:51:50;2.10;86.80
210;DHT22;90;48.810;9.120;2024-01-27T07:54:17;2.30;86.30
210;DHT22;90;48.810;9.120;2024-01-27T07:56:43;2.40;85.50
210;DHT22;90;48.810;9.120;2024-01-27T07:59:10;2.40;85.40
210;DHT22;90;48.810;9.120;2024-01-27T08:01:39;2.40;85.60
210;DHT22;90;48.810;9.120;2024-01-27T08:04:06;2.50;85.40
210;DHT22;90;48.810;9.120;2024-01-27T08:06:33;2.80;88.20
210;DHT22;90;48.810;9.120;2024-01-27T08:09:01;3.00;93.00
210;DHT22;90;48.810;9.120;2024-01-27T08:11:28;3.00;90.00
210;DHT22;90;48.810;9.120;2024-01-27T08:13:55;3.00;87.70
210;DHT22;90;48.810;9.120;2024-01-27T08:16:22;2.90;87.00
210;DHT22;90;48.810;9.120;2024-01-27T08:18:49;2.90;86.60
210;DHT22;90;48.810;9.120;2024-01-27T08:21:16;3.00;86.10
210;DHT22;90;48.810;9.120;2024-01-27T08:23:42;3.00;85.80
210;DHT22;90;48.810;9.120;2024-01-27T08:26:11;3.10;85.60
210;DHT22;90;48.810;9.120;2024-01-27T08:28:38;3.10;85.00
210;DHT22;90;48.810;9.120;2024-01-27T08:31:04;3.10;85.20
210;DHT22;90;48.810;9.120;2024-01-27T08:33:31;3.10;85.40
210;DHT22;90;48.810;9.120;2024-01-27T08:35:58;3.20;85.60
210;DHT22;90;48.810;9.120;2024-01-27T08:38:25;3.20;85.40
210;DHT22;90;48.810;9.120;2024-01-27T08:40:52;3.30;85.20
210;DHT22;90;48.810;9.120;2024-01-27T08:43:22;3.40;85.00
210;DHT22;90;48.810;9.120;2024-01-27T08:45:49;3.40;85.30
210;DHT22;90;48.810;9.120;2024-01-27T08:48:16;3.40;85.30
210;DHT22;90;48.810;9.120;2024-01-27T08:50:43;3.60;85.30
210;DHT22;90;48.810;9.120;2024-01-27T08:53:10;3.70;85.10
210;DHT22;90;48.810;9.120;2024-01-27T08:55:37;3.70;85.00
210;DHT22;90;48.810;9.120;2024-01-27T08:58:03;3.70;85.00
210;DHT22;90;48.810;9.120;2024-01-27T09:00:32;3.80;84.90
210;DHT22;90;48.810;9.120;2024-01-27T09:02:58;3.80;84.70
210;DHT22;90;48.810;9.120;2024-01-27T09:05:26;3.90;84.50
210;DHT22;90;48.810;9.120;2024-01-27T09:07:54;3.90;84.60
210;DHT22;90;48.810;9.120;2024-01-27T09:10:20;4.00;84.40
210;DHT22;90;48.810;9.120;2024-01-27T09:12:47;4.10;84.40
210;DHT22;90;48.810;9.120;2024-01-27T09:15:14;4.40;92.00
210;DHT22;90;48.810;9.120;2024-01-27T09:17:42;4.30;86.40
210;DHT22;90;48.810;9.120;2024-01-27T09:20:09;4.40;85.90
210;DHT22;90;48.810;9.120;2024-01-27T09:22:36;4.50;85.00
210;DHT22;90;48.810;9.120;2024-01-27T09:25:03;4.40;84.00
210;DHT22;90;48.810;9.120;2024-01-27T09:27:30;4.30;84.10
210;DHT22;90;48.810;9.120;2024-01-27T09:29:57;4.40;84.30
210;DHT22;90;48.810;9.120;2024-01-27T09:32:24;4.50;84.10
210;DHT22;90;48.810;9.120;2024-01-27T09:34:52;4.50;83.80
210;DHT22;90;48.810;9.120;2024-01-27T09:37:19;4.60;83.80
210;DHT22;90;48.810;9.120;2024-01-27T09:39:46;4.70;83.40
210;DHT22;90;48.810;9.120;2024-01-27T09:42:13;4.70;83.10
210;DHT22;90;48.810;9.120;2024-01-27T09:44:43;4.90;82.90
210;DHT22;90;48.810;9.120;2024-01-27T09:47:11;5.00;82.50
210;DHT22;90;48.810;9.120;2024-01-27T09:49:39;5.10;82.30
210;DHT22;90;48.810;9.120;2024-01-27T09:52:08;5.20;81.70
210;DHT22;90;48.810;9.120;2024-01-27T09:54:35;5.20;81.30
210;DHT22;90;48.810;9.120;2024-01-27T09:57:03;5.30;81.20
210;DHT22;90;48.810;9.120;2024-01-27T09:59:31;5.40;80.60
210;DHT22;90;48.810;9.120;2024-01-27T10:02:00;5.80;85.20
210;DHT22;90;48.810;9.120;2024-01-27T10:04:29;5.80;80.80
210;DHT22;90;48.810;9.120;2024-01-27T10:06:58;5.90;79.80
210;DHT22;90;48.810;9.120;2024-01-27T10:09:27;6.00;79.20
210;DHT22;90;48.810;9.120;2024-01-27T10:11:54;6.30;87.80
210;DHT22;90;48.810;9.120;2024-01-27T10:14:22;6.40;82.40
210;DHT22;90;48.810;9.120;2024-01-27T10:16:48;6.40;79.10
210;DHT22;90;48.810;9.120;2024-01-27T10:19:16;6.40;78.60
210;DHT22;90;48.810;9.120;2024-01-27T10:21:44;6.50;78.00
210;DHT22;90;48.810;9.120;2024-01-27T10:24:11;6.40;77.30
210;DHT22;90;48.810;9.120;2024-01-27T10:26:42;6.50;77.40
210;DHT22;90;48.810;9.120;2024-01-27T10:29:09;6.50;76.40
210;DHT22;90;48.810;9.120;2024-01-27T10:31:36;6.60;76.00
210;DHT22;90;48.810;9.120;2024-01-27T10:34:03;6.60;75.80
210;DHT22;90;48.810;9.120;2024-01-27T10:36:40;6.60;75.40
210;DHT22;90;48.810;9.120;2024-01-27T10:39:15;6.70;75.10
210;DHT22;90;48.810;9.120;2024-01-27T10:41:45;6.70;75.00
210;DHT22;90;48.810;9.120;2024-01-27T10:44:15;6.80;74.90
210;DHT22;90;48.810;9.120;2024-01-27T10:46:43;6.80;74.70
210;DHT22;90;48.810;9.120;2024-01-27T10:49:12;6.90;74.80
210;DHT22;90;48.810;9.120;2024-01-27T10:51:44;7.10;75.00
210;DHT22;90;48.810;9.120;2024-01-27T10:54:21;7.10;74.60
210;DHT22;90;48.810;9.120;2024-01-27T10:56:51;7.20;74.40
210;DHT22;90;48.810;9.120;2024-01-27T10:59:21;7.30;74.90
210;DHT22;90;48.810;9.120;2024-01-27T11:01:49;7.40;74.70
210;DHT22;90;48.810;9.120;2024-01-27T11:04:19;7.40;73.90
210;DHT22;90;48.810;9.120;2024-01-27T11:06:47;7.30;74.30
210;DHT22;90;48.810;9.120;2024-01-27T11:09:15;7.10;75.00
210;DHT22;90;48.810;9.120;2024-01-27T11:11:47;7.20;75.00
210;DHT22;90;48.810;9.120;2024-01-27T11:14:18;7.30;74.90
210;DHT22;90;48.810;9.120;2024-01-27T11:16:45;7.40;74.30
210;DHT22;90;48.810;9.120;2024-01-27T11:19:13;7.30;75.00
210;DHT22;90;48.810;9.120;2024-01-27T11:21:39;7.30;75.50
210;DHT22;90;48.810;9.120;2024-01-27T11:24:14;7.40;75.30
210;DHT22;90;48.810;9.120;2024-01-27T11:26:41;7.60;75.00
210;DHT22;90;48.810;9.120;2024-01-27T11:29:08;7.60;74.20
210;DHT22;90;48.810;9.120;2024-01-27T11:31:45;7.70;74.50
210;DHT22;90;48.810;9.120;2024-01-27T11:34:12;7.80;74.00
210;DHT22;90;48.810;9.120;2024-01-27T11:36:42;7.80;73.20
210;DHT22;90;48.810;9.120;2024-01-27T11:39:23;8.10;76.60
210;DHT22;90;48.810;9.120;2024-01-27T11:41:50;8.10;73.30
210;DHT22;90;48.810;9.120;2024-01-27T11:44:17;8.00;72.20
210;DHT22;90;48.810;9.120;2024-01-27T11:46:45;8.10;71.40
210;DHT22;90;48.810;9.120;2024-01-27T11:49:15;8.10;70.80
210;DHT22;90;48.810;9.120;2024-01-27T11:51:42;8.10;71.70
210;DHT22;90;48.810;9.120;2024-01-27T11:54:09;8.10;71.90
210;DHT22;90;48.810;9.120;2024-01-27T11:56:35;8.20;71.80
210;DHT22;90;48.810;9.120;2024-01-27T11:59:02;8.40;73.30
210;DHT22;90;48.810;9.120;2024-01-27T12:01:29;8.30;71.80
210;DHT22;90;48.810;9.120;2024-01-27T12:03:57;8.40;71.90
210;DHT22;90;48.810;9.120;2024-01-27T12:06:24;8.50;71.00
210;DHT22;90;48.810;9.120;2024-01-27T12:08:53;8.60;69.80
210;DHT22;90;48.810;9.120;2024-01-27T12:11:21;8.50;69.00
210;DHT22;90;48.810;9.120;2024-01-27T12:13:47;8.50;69.40
210;DHT22;90;48.810;9.120;2024-01-27T12:16:15;8.60;70.40
210;DHT22;90;48.810;9.120;2024-01-27T12:18:43;8.50;69.50
210;DHT22;90;48.810;9.120;2024-01-27T12:21:11;8.60;69.70
210;DHT22;90;48.810;9.120;2024-01-27T12:23:49;8.80;70.70
210;DHT22;90;48.810;9.120;2024-01-27T12:26:16;8.90;69.60
210;DHT22;90;48.810;9.120;2024-01-27T12:28:45;8.90;69.00
210;DHT22;90;48.810;9.120;2024-01-27T12:31:12;8.80;67.90
210;DHT22;90;48.810;9.120;2024-01-27T12:33:39;8.90;68.40
210;DHT22;90;48.810;9.120;2024-01-27T12:36:07;8.90;68.50
210;DHT22;90;48.810;9.120;2024-01-27T12:38:37;9.10;67.40
210;DHT22;90;48.810;9.120;2024-01-27T12:41:03;9.10;66.50
210;DHT22;90;48.810;9.120;2024-01-27T12:43:30;9.40;79.10
210;DHT22;90;48.810;9.120;2024-01-27T12:45:57;9.70;67.70
210;DHT22;90;48.810;9.120;2024-01-27T12:48:23;9.60;64.30
210;DHT22;90;48.810;9.120;2024-01-27T12:50:50;9.60;64.70
210;DHT22;90;48.810;9.120;2024-01-27T12:53:17;10.00;71.20
210;DHT22;90;48.810;9.120;2024-01-27T12:55:45;10.00;62.60
210;DHT22;90;48.810;9.120;2024-01-27T12:58:12;10.00;62.80
210;DHT22;90;48.810;9.120;2024-01-27T13:00:39;10.00;62.40
210;DHT22;90;48.810;9.120;2024-01-27T13:03:06;9.80;61.30
210;DHT22;90;48.810;9.120;2024-01-27T13:05:33;9.80;62.30
210;DHT22;90;48.810;9.120;2024-01-27T13:07:59;9.70;62.40
210;DHT22;90;48.810;9.120;2024-01-27T13:10:26;9.80;62.90
210;DHT22;90;48.810;9.120;2024-01-27T13:12:54;9.80;62.00
210;DHT22;90;48.810;9.120;2024-01-27T13:15:21;9.70;62.70
210;DHT22;90;48.810;9.120;2024-01-27T13:17:50;9.80;62.80
210;DHT22;90;48.810;9.120;2024-01-27T13:20:17;9.80;62.30
210;DHT22;90;48.810;9.120;2024-01-27T13:22:44;9.80;62.50
210;DHT22;90;48.810;9.120;2024-01-27T13:25:11;10.00;61.40
210;DHT22;90;48.810;9.120;2024-01-27T13:27:38;10.10;61.00
210;DHT22;90;48.810;9.120;2024-01-27T13:30:07;10.20;61.40
210;DHT22;90;48.810;9.120;2024-01-27T13:32:34;10.20;60.00
210;DHT22;90;48.810;9.120;2024-01-27T13:35:01;10.00;58.70
210;DHT22;90;48.810;9.120;2024-01-27T13:37:28;10.10;56.90
210;DHT22;90;48.810;9.120;2024-01-27T13:39:58;10.20;57.40
210;DHT22;90;48.810;9.120;2024-01-27T13:42:25;10.20;57.60
210;DHT22;90;48.810;9.120;2024-01-27T13:44:52;10.20;55.80
210;DHT22;90;48.810;9.120;2024-01-27T13:47:20;10.10;54.20
210;DHT22;90;48.810;9.120;2024-01-27T13:49:47;10.20;53.10
210;DHT22;90;48.810;9.120;2024-01-27T13:52:14;10.10;51.70
210;DHT22;90;48.810;9.120;2024-01-27T13:54:41;10.20;52.40
210;DHT22;90;48.810;9.120;2024-01-27T13:57:08;11.00;87.80
210;DHT22;90;48.810;9.120;2024-01-27T13:59:36;12.60;86.40
210;DHT22;90;48.810;9.120;2024-01-27T14:02:03;13.70;77.30
210;DHT22;90;48.810;9.120;2024-01-27T14:04:31;14.40;70.00
210;DHT22;90;48.810;9.120;2024-01-27T14:06:59;14.90;64.40
210;DHT22;90;48.810;9.120;2024-01-27T14:09:28;15.30;61.00
210;DHT22;90;48.810;9.120;2024-01-27T14:11:55;15.70;58.50
210;DHT22;90;48.810;9.120;2024-01-27T14:14:22;15.90;57.00
210;DHT22;90;48.810;9.120;2024-01-27T14:16:48;16.20;55.40
210;DHT22;90;48.810;9.120;2024-01-27T14:19:15;16.20;54.00
210;DHT22;90;48.810;9.120;2024-01-27T14:21:43;16.30;53.40
210;DHT22;90;48.810;9.120;2024-01-27T14:24:10;16.30;51.40
210;DHT22;90;48.810;9.120;2024-01-27T14:26:37;16.30;51.20
210;DHT22;90;48.810;9.120;2024-01-27T14:29:04;16.40;50.20
210;DHT22;90;48.810;9.120;2024-01-27T14:31:30;16.40;50.10
210;DHT22;90;48.810;9.120;2024-01-27T14:33:57;16.20;45.20
210;DHT22;90;48.810;9.120;2024-01-27T14:36:24;15.70;43.30
210;DHT22;90;48.810;9.120;2024-01-27T14:38:52;14.70;43.90
210;DHT22;90;48.810;9.120;2024-01-27T14:41:19;14.00;45.20
210;DHT22;90;48.810;9.120;2024-01-27T14:43:50;13.40;46.60
210;DHT22;90;48.810;9.120;2024-01-27T14:46:17;12.90;47.80
210;DHT22;90;48.810;9.120;2024-01-27T14:48:44;12.30;50.40
210;DHT22;90;48.810;9.120;2024-01-27T14:51:10;12.00;51.80
210;DHT22;90;48.810;9.120;2024-01-27T14:53:38;11.90;53.10
210;DHT22;90;48.810;9.120;2024-01-27T14:56:06;11.60;53.90
210;DHT22;90;48.810;9.120;2024-01-27T14:58:33;11.50;54.50
210;DHT22;90;48.810;9.120;2024-01-27T15:01:00;11.30;55.50
210;DHT22;90;48.810;9.120;2024-01-27T15:03:26;11.10;56.00
210;DHT22;90;48.810;9.120;2024-01-27T15:05:53;10.80;57.00
210;DHT22;90;48.810;9.120;2024-01-27T15:08:21;10.60;57.80
210;DHT22;90;48.810;9.120;2024-01-27T15:10:48;10.30;58.70
210;DHT22;90;48.810;9.120;2024-01-27T15:13:16;10.10;59.60
210;DHT22;90;48.810;9.120;2024-01-27T15:15:46;9.80;60.60
210;DHT22;90;48.810;9.120;2024-01-27T15:18:12;9.60;61.30
210;DHT22;90;48.810;9.120;2024-01-27T15:20:39;9.50;61.70
210;DHT22;90;48.810;9.120;2024-01-27T15:23:06;9.40;62.00
210;DHT22;90;48.810;9.120;2024-01-27T15:25:32;9.30;62.50
210;DHT22;90;48.810;9.120;2024-01-27T15:28:00;9.20;62.70
210;DHT22;90;48.810;9.120;2024-01-27T15:30:29;9.00;63.10
210;DHT22;90;48.810;9.120;2024-01-27T15:32:55;8.90;63.40
210;DHT22;90;48.810;9.120;2024-01-27T15:35:22;8.90;63.60
210;DHT22;90;48.810;9.120;2024-01-27T15:37:49;8.80;63.80
210;DHT22;90;48.810;9.120;2024-01-27T15:40:15;8.70;64.30
210;DHT22;90;48.810;9.120;2024-01-27T15:42:42;8.60;64.60
210;DHT22;90;48.810;9.120;2024-01-27T15:45:09;8.50;64.60
210;DHT22;90;48.810;9.120;2024-01-27T15:47:37;8.50;64.90
210;DHT22;90;48.810;9.120;2024-01-27T15:50:04;8.40;65.10
210;DHT22;90;48.810;9.120;2024-01-27T15:52:31;8.30;65.20
210;DHT22;90;48.810;9.120;2024-01-27T15:54:58;8.20;65.60
210;DHT22;90;48.810;9.120;2024-01-27T15:57:25;8.40;71.00
210;DHT22;90;48.810;9.120;2024-01-27T15:59:52;8.30;68.40
210;DHT22;90;48.810;9.120;2024-01-27T16:02:21;8.10;67.90
210;DHT22;90;48.810;9.120;2024-01-27T16:04:49;8.10;68.00
210;DHT22;90;48.810;9.120;2024-01-27T16:07:16;8.00;68.10
210;DHT22;90;48.810;9.120;2024-01-27T16:09:46;7.90;68.40
210;DHT22;90;48.810;9.120;2024-01-27T16:12:13;7.70;68.60
210;DHT22;90;48.810;9.120;2024-01-27T16:14:39;7.50;69.00
210;DHT22;90;48.810;9.120;2024-01-27T16:17:06;7.40;69.60
210;DHT22;90;48.810;9.120;2024-01-27T16:19:34;7.30;69.80
210;DHT22;90;48.810;9.120;2024-01-27T16:22:02;7.20;70.10
210;DHT22;90;48.810;9.120;2024-01-27T16:24:29;7.10;70.40
210;DHT22;90;48.810;9.120;2024-01-27T16:26:56;6.80;71.00
210;DHT22;90;48.810;9.120;2024-01-27T16:29:22;6.70;71.50
210;DHT22;90;48.810;9.120;2024-01-27T16:31:49;6.50;71.90
210;DHT22;90;48.810;9.120;2024-01-27T16:34:16;6.40;72.20
210;DHT22;90;48.810;9.120;2024-01-27T16:36:43;6.40;72.30
210;DHT22;90;48.810;9.120;2024-01-27T16:39:11;6.20;72.80
210;DHT22;90;48.810;9.120;2024-01-27T16:41:38;6.10;73.00
210;DHT22;90;48.810;9.120;2024-01-27T16:44:05;6.00;73.20
210;DHT22;90;48.810;9.120;2024-01-27T16:46:31;5.90;73.20
210;DHT22;90;48.810;9.120;2024-01-27T16:48:58;5.70;73.70
210;DHT22;90;48.810;9.120;2024-01-27T16:51:25;5.70;74.10
210;DHT22;90;48.810;9.120;2024-01-27T16:53:52;5.60;74.40
210;DHT22;90;48.810;9.120;2024-01-27T16:56:20;5.50;74.80
210;DHT22;90;48.810;9.120;2024-01-27T16:58:46;5.40;74.60
210;DHT22;90;48.810;9.120;2024-01-27T17:01:15;5.40;74.70
210;DHT22;90;48.810;9.120;2024-01-27T17:03:42;5.40;74.80
210;DHT22;90;48.810;9.120;2024-01-27T17:06:08;5.30;75.00
210;DHT22;90;48.810;9.120;2024-01-27T17:08:35;5.20;75.50